Pollard, Alabama
Current Conditions -  °F | °C
As of 2:53 AM on Saturday 01 Nov 2014 (Local Time) from KGZH Reporting Station
Clear Clear  
Wind Chill: 39°   Ceiling: Unl
Heat Index: 43°   Visibility: 10mi
Dew Point: 25°   Wind: 6mph
Humidity: 49%   Direction: 340°NNW
Pressure: 30.18"   Gusts: NA
Location:  31.1088°N, 87.2802°W
Report Text: KGZH 010753Z AUTO 34005KT 10SM CLR 06/M04 A3018 RMK AO2 SLP216 T00611039
Loading
Personal Weather Stations






























Interactive Weather Map New forecast layout! Learn more

10-Day Weather Forecast

Advertisements
Track Severe Weather on mobile